Time;durP1;ratioP1;P1;durP2;ratioP2;P2;SDS_P1;SDS_P2;PMS_P1;PMS_P2;Temp;Humidity;BMP_temperature;BMP_pressure;BME280_temperature;BME280_humidity;BME280_pressure;Samples;Min_cycle;Max_cycle;Signal;HPM_P1;HPM_P2
2023/06/13 00:01:25;;;;;;;0.70;0.35;;;;;;;16.33;97.04;99751.69;5006449;28;20489;-91
2023/06/13 00:03:53;;;;;;;0.47;0.35;;;;;;;16.32;98.46;99738.16;5033871;28;20034;-92
2023/06/13 00:06:18;;;;;;;0.00;0.00;;;;;;;16.28;99.10;99749.56;5035173;28;20044;-92
2023/06/13 00:08:44;;;;;;;1.05;0.35;;;;;;;16.18;99.43;99736.13;4999989;28;20025;-92
2023/06/13 00:11:09;;;;;;;0.20;0.20;;;;;;;16.22;99.10;99745.09;4987183;28;20037;-92
2023/06/13 00:13:36;;;;;;;0.30;0.30;;;;;;;16.16;99.42;99741.44;5020048;28;20034;-91
2023/06/13 00:16:02;;;;;;;0.00;0.00;;;;;;;16.15;99.38;99745.50;5030492;28;20033;-92
2023/06/13 00:18:30;;;;;;;0.20;0.20;;;;;;;16.09;98.71;99747.44;5036146;28;20032;-92
2023/06/13 00:20:58;;;;;;;0.43;0.40;;;;;;;16.07;99.28;99735.94;5029395;28;20037;-93
2023/06/13 00:23:26;;;;;;;0.10;0.10;;;;;;;16.06;100.00;99737.19;5006315;28;20041;-92
2023/06/13 00:25:53;;;;;;;0.00;0.00;;;;;;;16.03;100.00;99733.34;5032067;28;20044;-92
2023/06/13 00:28:19;;;;;;;0.20;0.20;;;;;;;16.01;100.00;99729.50;5016687;28;20041;-92
2023/06/13 00:30:45;;;;;;;0.20;0.20;;;;;;;15.85;98.24;99731.47;4999012;28;20036;-92
2023/06/13 00:33:16;;;;;;;1.20;0.60;;;;;;;15.80;99.25;99720.97;5018475;28;20088;-91
2023/06/13 00:35:45;;;;;;;0.10;0.10;;;;;;;15.68;97.37;99716.44;5026794;28;20029;-92
2023/06/13 00:38:12;;;;;;;0.80;0.68;;;;;;;15.68;97.83;99722.03;5027003;28;20122;-91
2023/06/13 00:40:38;;;;;;;0.52;0.52;;;;;;;15.53;97.63;99724.00;4989432;28;20041;-91
2023/06/13 00:43:05;;;;;;;0.30;0.30;;;;;;;15.56;95.93;99717.47;5016474;28;20025;-92
2023/06/13 00:45:33;;;;;;;0.00;0.00;;;;;;;15.48;92.03;99721.84;5014625;28;20393;-91
2023/06/13 00:48:01;;;;;;;0.10;0.10;;;;;;;15.49;93.50;99725.44;5001226;28;20108;-92
2023/06/13 00:50:33;;;;;;;0.68;0.30;;;;;;;15.52;95.02;99721.69;5017556;28;20142;-91
2023/06/13 00:53:00;;;;;;;0.17;0.10;;;;;;;15.44;93.68;99715.69;5027607;28;20036;-90
2023/06/13 00:55:26;;;;;;;0.00;0.00;;;;;;;15.41;94.81;99703.41;5012037;28;20129;-91
2023/06/13 00:57:55;;;;;;;0.50;0.50;;;;;;;15.35;95.89;99712.94;5026216;28;20151;-92
2023/06/13 01:51:45;;;;;;;0.17;0.17;;;;;;;14.84;98.07;99691.56;5046912;28;20084;-86
2023/06/13 01:54:11;;;;;;;0.82;0.65;;;;;;;14.75;98.97;99677.66;5027488;28;20441;-86
2023/06/13 01:56:40;;;;;;;0.10;0.10;;;;;;;14.69;98.42;99673.97;5010472;28;20123;-87
2023/06/13 01:59:06;;;;;;;0.25;0.25;;;;;;;14.74;99.04;99687.28;5024955;28;20327;-86
2023/06/13 02:01:35;;;;;;;0.05;0.05;;;;;;;14.61;96.88;99661.59;5018699;28;20104;-86
2023/06/13 02:04:04;;;;;;;1.30;0.38;;;;;;;14.79;97.52;99675.47;5015103;28;20562;-86
2023/06/13 02:06:30;;;;;;;0.00;0.00;;;;;;;14.78;95.58;99682.28;5016066;28;20044;-86
2023/06/13 02:08:56;;;;;;;0.90;0.52;;;;;;;14.75;96.69;99693.63;5022124;28;20102;-86
2023/06/13 02:11:22;;;;;;;1.13;0.40;;;;;;;14.61;96.99;99672.75;5026841;28;20033;-86
2023/06/13 02:13:48;;;;;;;0.38;0.38;;;;;;;14.57;96.84;99669.38;5024480;28;20519;-86
2023/06/13 02:16:14;;;;;;;0.10;0.10;;;;;;;14.62;97.95;99685.47;5016870;28;20030;-86
2023/06/13 02:18:40;;;;;;;0.05;0.00;;;;;;;14.55;99.46;99696.22;5017175;28;20414;-86
2023/06/13 02:21:06;;;;;;;0.30;0.30;;;;;;;14.62;98.39;99709.81;5010354;28;20354;-86
2023/06/13 02:23:32;;;;;;;0.85;0.50;;;;;;;14.58;99.61;99707.22;4991627;28;20038;-86
2023/06/13 02:25:57;;;;;;;0.00;0.00;;;;;;;14.61;99.52;99711.06;5039628;28;20039;-86
2023/06/13 02:28:23;;;;;;;0.10;0.10;;;;;;;14.52;100.00;99697.16;5033853;28;20033;-86
2023/06/13 02:30:48;;;;;;;0.28;0.28;;;;;;;14.35;100.00;99686.38;5046201;28;20076;-86
2023/06/13 02:33:15;;;;;;;1.00;0.50;;;;;;;14.44;100.00;99714.22;5017684;28;20025;-86
2023/06/13 02:35:43;;;;;;;1.00;0.57;;;;;;;14.37;100.00;99713.81;5021377;28;20037;-86
2023/06/13 02:38:09;;;;;;;1.23;0.55;;;;;;;14.23;100.00;99697.72;5021662;28;20047;-86
2023/06/13 02:40:38;;;;;;;0.28;0.25;;;;;;;14.16;100.00;99709.19;5006208;28;20031;-86
2023/06/13 02:43:04;;;;;;;0.17;0.17;;;;;;;14.12;100.00;99712.13;5033467;28;20041;-87
2023/06/13 02:45:29;;;;;;;1.10;0.68;;;;;;;14.03;100.00;99695.47;5034656;28;20029;-86
2023/06/13 02:47:57;;;;;;;0.20;0.20;;;;;;;14.08;100.00;99707.97;5035154;28;20025;-87
2023/06/13 02:50:22;;;;;;;0.15;0.15;;;;;;;14.05;100.00;99692.19;5035858;28;20418;-85
2023/06/13 02:52:48;;;;;;;0.52;0.52;;;;;;;13.99;100.00;99698.38;5022877;28;20042;-86
2023/06/13 02:55:14;;;;;;;1.17;0.95;;;;;;;13.92;100.00;99689.56;5021258;28;20033;-86
2023/06/13 02:57:40;;;;;;;2.50;0.45;;;;;;;13.83;100.00;99693.16;5022476;28;20128;-86
2023/06/13 03:00:08;;;;;;;0.10;0.10;;;;;;;13.88;100.00;99700.88;5024418;28;20645;-86
2023/06/13 03:02:36;;;;;;;0.17;0.17;;;;;;;13.82;100.00;99702.00;5018324;28;20053;-87
2023/06/13 03:05:09;;;;;;;0.43;0.40;;;;;;;13.69;100.00;99699.38;5028547;28;20120;-86
2023/06/13 03:07:35;;;;;;;0.25;0.20;;;;;;;13.50;100.00;99689.50;5010273;28;20033;-86
2023/06/13 03:10:03;;;;;;;0.22;0.20;;;;;;;13.46;100.00;99680.53;5036140;28;20056;-86
2023/06/13 03:12:32;;;;;;;0.08;0.08;;;;;;;13.38;100.00;99693.22;5029113;28;20031;-87
2023/06/13 03:14:58;;;;;;;0.20;0.20;;;;;;;13.47;100.00;99709.91;5045528;28;20033;-96
2023/06/13 03:17:23;;;;;;;0.10;0.10;;;;;;;13.43;100.00;99689.78;5040494;28;20124;-96
2023/06/13 03:19:50;;;;;;;0.52;0.52;;;;;;;13.35;100.00;99708.03;5027909;28;20031;-96
2023/06/13 03:22:16;;;;;;;0.25;0.25;;;;;;;13.27;100.00;99695.66;5039666;28;20478;-96
2023/06/13 03:24:43;;;;;;;0.30;0.28;;;;;;;13.34;100.00;99706.53;5029225;28;20060;-96
2023/06/13 03:27:09;;;;;;;0.13;0.13;;;;;;;13.35;100.00;99702.47;5056603;28;20072;-96
2023/06/13 03:29:35;;;;;;;0.10;0.10;;;;;;;13.34;100.00;99710.09;5043898;28;20029;-95
2023/06/13 03:32:01;;;;;;;0.47;0.47;;;;;;;13.37;100.00;99716.72;5040360;28;20036;-95
2023/06/13 03:34:28;;;;;;;0.57;0.35;;;;;;;13.33;100.00;99699.41;5036685;28;20029;-95
2023/06/13 03:36:54;;;;;;;0.00;0.00;;;;;;;13.35;100.00;99705.25;5018004;28;20505;-95
2023/06/13 03:39:21;;;;;;;0.20;0.20;;;;;;;13.37;100.00;99711.94;5028265;28;20028;-96
2023/06/13 03:46:57;;;;;;;0.30;0.30;;;;;;;13.45;100.00;99712.41;5002440;28;20048;-87
2023/06/13 03:49:24;;;;;;;0.57;0.32;;;;;;;13.51;100.00;99713.31;4988318;28;20038;-87
2023/06/13 03:51:50;;;;;;;5.05;0.43;;;;;;;13.47;100.00;99712.69;4977354;28;20053;-87
2023/06/13 03:54:16;;;;;;;0.10;0.10;;;;;;;13.57;100.00;99730.97;4974463;28;20041;-87
2023/06/13 03:56:42;;;;;;;0.28;0.28;;;;;;;13.56;100.00;99723.84;4989684;28;20407;-87
2023/06/13 03:59:07;;;;;;;0.73;0.63;;;;;;;13.49;100.00;99713.00;4974404;28;20036;-87
2023/06/13 04:01:33;;;;;;;0.25;0.25;;;;;;;13.59;100.00;99728.47;5005231;28;20061;-87
2023/06/13 04:03:59;;;;;;;0.13;0.13;;;;;;;13.57;100.00;99719.81;5003613;28;20061;-87
2023/06/13 04:06:26;;;;;;;0.15;0.08;;;;;;;13.71;100.00;99724.75;4992122;28;20363;-87
2023/06/13 04:25:03;;;;;;;0.20;0.20;;;;;;;14.00;100.00;99744.56;5041356;28;20076;-95
2023/06/13 04:27:29;;;;;;;0.30;0.30;;;;;;;13.98;100.00;99738.69;4993636;28;20038;-94
2023/06/13 04:29:56;;;;;;;0.10;0.10;;;;;;;13.85;100.00;99718.56;5003864;28;20129;-95
2023/06/13 04:32:23;;;;;;;0.05;0.05;;;;;;;13.62;100.00;99694.13;5012691;28;20040;-93
2023/06/13 04:34:52;;;;;;;0.47;0.20;;;;;;;13.67;100.00;99689.94;5000419;28;20032;-94
2023/06/13 04:37:23;;;;;;;0.22;0.22;;;;;;;14.10;100.00;99741.75;5006647;28;20059;-93
2023/06/13 04:39:52;;;;;;;0.45;0.45;;;;;;;14.07;100.00;99753.84;5023149;28;20029;-94
2023/06/13 04:42:27;;;;;;;2.88;0.63;;;;;;;13.97;100.00;99748.28;5013855;28;20025;-93
2023/06/13 04:45:02;;;;;;;0.55;0.47;;;;;;;13.88;100.00;99714.84;5013521;28;20123;-95
2023/06/13 04:47:33;;;;;;;0.20;0.20;;;;;;;13.78;100.00;99693.78;5002329;28;20041;-95
2023/06/13 04:49:59;;;;;;;0.20;0.20;;;;;;;14.21;100.00;99747.63;5025731;28;20033;-95
2023/06/13 04:52:32;;;;;;;0.22;0.22;;;;;;;13.96;100.00;99688.16;4995085;28;20450;-95
2023/06/13 04:55:02;;;;;;;0.00;0.00;;;;;;;13.94;100.00;99673.94;5015255;28;20029;-95
2023/06/13 04:57:28;;;;;;;0.75;0.60;;;;;;;14.29;100.00;99723.72;5016612;28;20033;-95
2023/06/13 04:59:55;;;;;;;0.00;0.00;;;;;;;14.56;100.00;99748.75;5028071;28;20075;-94
2023/06/13 05:02:22;;;;;;;0.50;0.50;;;;;;;14.62;100.00;99741.31;5025092;28;20561;-93
2023/06/13 05:04:48;;;;;;;0.35;0.35;;;;;;;14.76;100.00;99743.41;5009152;28;20033;-95
2023/06/13 05:07:15;;;;;;;0.55;0.25;;;;;;;14.88;100.00;99750.03;5020568;28;20116;-94
2023/06/13 05:09:44;;;;;;;0.20;0.20;;;;;;;15.04;100.00;99751.66;5022672;28;20029;-94
2023/06/13 05:12:11;;;;;;;0.32;0.32;;;;;;;15.14;100.00;99745.53;5021698;28;20037;-94
2023/06/13 05:14:40;;;;;;;0.73;0.63;;;;;;;15.22;100.00;99738.34;5014692;28;20014;-94
2023/06/13 05:17:06;;;;;;;0.55;0.52;;;;;;;15.29;100.00;99731.59;5008749;28;20454;-92
2023/06/13 05:19:34;;;;;;;0.00;0.00;;;;;;;15.41;100.00;99738.97;5021157;28;20055;-93
2023/06/13 05:22:07;;;;;;;0.77;0.68;;;;;;;15.45;100.00;99736.75;5025383;28;20025;-92
2023/06/13 05:24:40;;;;;;;0.93;0.80;;;;;;;15.55;100.00;99741.09;5018233;28;20045;-95
2023/06/13 05:27:06;;;;;;;;;;;;;;;15.64;100.00;99746.59;4985426;28;20041;-94
2023/06/13 05:29:31;;;;;;;0.70;0.55;;;;;;;15.77;100.00;99741.50;5006927;28;19948;-95
2023/06/13 05:31:57;;;;;;;0.40;0.40;;;;;;;15.90;100.00;99746.81;4997933;28;20037;-92
2023/06/13 05:34:23;;;;;;;0.85;0.68;;;;;;;16.03;100.00;99744.53;5012280;28;20413;-92
2023/06/13 05:36:49;;;;;;;0.25;0.25;;;;;;;16.10;100.00;99726.56;4994557;28;20442;-91
2023/06/13 05:39:15;;;;;;;0.90;0.77;;;;;;;16.20;100.00;99753.22;5016661;28;20357;-93
2023/06/13 05:41:41;;;;;;;0.45;0.45;;;;;;;16.09;97.44;99725.06;5028381;28;20112;-93
2023/06/13 05:44:07;;;;;;;0.90;0.90;;;;;;;16.07;100.00;99721.94;5006577;28;20029;-93
2023/06/13 05:46:32;;;;;;;0.88;0.47;;;;;;;16.25;100.00;99741.38;4998388;28;20033;-93
2023/06/13 05:48:58;;;;;;;0.52;0.52;;;;;;;16.51;100.00;99753.50;5005515;28;20147;-93
2023/06/13 05:51:24;;;;;;;0.40;0.40;;;;;;;16.75;100.00;99747.78;5003615;28;20040;-93
2023/06/13 05:53:50;;;;;;;0.43;0.43;;;;;;;16.98;100.00;99751.69;5001661;28;20480;-92
2023/06/13 05:56:16;;;;;;;1.38;0.85;;;;;;;17.10;91.50;99753.41;5012209;28;20040;-93
2023/06/13 05:58:43;;;;;;;1.13;0.80;;;;;;;17.21;93.06;99756.34;5012828;28;20037;-90
2023/06/13 06:01:10;;;;;;;0.22;0.22;;;;;;;17.37;90.70;99757.81;5005794;28;20026;-90
2023/06/13 06:03:41;;;;;;;0.47;0.47;;;;;;;17.43;83.37;99725.78;4995874;28;20041;-91
2023/06/13 06:06:06;;;;;;;0.73;0.52;;;;;;;17.71;77.21;99749.34;5012505;28;20061;-90
2023/06/13 06:08:34;;;;;;;0.30;0.15;;;;;;;17.82;76.85;99736.72;5019318;28;20379;-90
2023/06/13 06:11:01;;;;;;;1.05;0.90;;;;;;;18.05;76.24;99733.63;5039559;28;20036;-90
2023/06/13 06:13:27;;;;;;;3.30;0.55;;;;;;;18.01;77.67;99721.09;5011430;28;20099;-90
2023/06/13 06:15:53;;;;;;;0.10;0.10;;;;;;;18.25;76.36;99744.03;4991055;28;20034;-90
2023/06/13 06:18:21;;;;;;;0.85;0.52;;;;;;;18.33;75.44;99711.44;4990453;28;20128;-91
2023/06/13 06:20:47;;;;;;;0.17;0.17;;;;;;;18.66;74.22;99736.22;5008723;28;20547;-90
2023/06/13 06:23:14;;;;;;;0.50;0.50;;;;;;;18.77;70.51;99729.91;4997211;28;20064;-90
2023/06/13 06:25:40;;;;;;;0.30;0.30;;;;;;;18.74;69.54;99711.25;4991567;28;20033;-89
2023/06/13 06:28:06;;;;;;;0.90;0.70;;;;;;;18.95;70.04;99718.28;4986592;28;20034;-90
2023/06/13 06:30:32;;;;;;;0.20;0.20;;;;;;;19.12;66.27;99733.22;4997494;28;20353;-91
2023/06/13 06:32:57;;;;;;;0.13;0.13;;;;;;;19.05;67.88;99731.63;4992884;28;20033;-90
2023/06/13 06:35:25;;;;;;;0.30;0.30;;;;;;;18.92;66.59;99708.06;5000116;28;20077;-91
2023/06/13 06:37:51;;;;;;;1.55;0.57;;;;;;;19.15;65.21;99743.44;5025170;28;20127;-92
2023/06/13 06:40:17;;;;;;;0.45;0.38;;;;;;;19.25;66.43;99738.38;4992448;28;20524;-90
2023/06/13 06:42:43;;;;;;;0.20;0.10;;;;;;;19.39;65.91;99717.72;4977875;28;20034;-90
2023/06/13 06:45:12;;;;;;;0.40;0.40;;;;;;;19.55;65.52;99731.13;5004469;28;20038;-90
2023/06/13 06:47:38;;;;;;;0.57;0.57;;;;;;;19.34;65.78;99715.66;4992632;28;20154;-91
2023/06/13 06:50:04;;;;;;;0.65;0.65;;;;;;;19.55;64.77;99748.78;4993206;28;20491;-90
2023/06/13 06:52:30;;;;;;;0.50;0.40;;;;;;;19.34;62.35;99744.56;4982283;28;20040;-90
2023/06/13 06:54:56;;;;;;;1.45;0.75;;;;;;;19.32;63.14;99735.88;4991866;28;20038;-90
2023/06/13 06:57:22;;;;;;;0.43;0.43;;;;;;;19.37;64.71;99737.91;5006294;28;20036;-90
2023/06/13 06:59:48;;;;;;;0.22;0.22;;;;;;;19.37;65.56;99731.53;5006993;28;20446;-91
2023/06/13 07:02:14;;;;;;;2.45;0.65;;;;;;;19.65;65.78;99728.84;5016349;28;20025;-91
2023/06/13 07:04:40;;;;;;;0.10;0.10;;;;;;;20.10;64.12;99741.75;5011235;28;20044;-91
2023/06/13 07:07:06;;;;;;;0.30;0.30;;;;;;;20.25;60.62;99735.88;5016920;28;20038;-91
2023/06/13 07:09:32;;;;;;;3.40;0.38;;;;;;;20.29;59.60;99736.44;5011286;28;20040;-91
2023/06/13 07:11:58;;;;;;;0.30;0.30;;;;;;;20.43;59.63;99730.53;4990636;28;20060;-91
2023/06/13 07:14:25;;;;;;;0.20;0.20;;;;;;;20.70;56.35;99737.47;4976367;28;20041;-91
2023/06/13 07:16:51;;;;;;;1.73;0.57;;;;;;;20.32;55.71;99730.53;5024795;28;20055;-90
2023/06/13 07:19:16;;;;;;;0.13;0.13;;;;;;;20.30;56.48;99727.44;5023945;28;20442;-91
2023/06/13 07:21:42;;;;;;;0.20;0.20;;;;;;;20.73;57.69;99730.00;5027105;28;20044;-91
2023/06/13 07:24:08;;;;;;;0.40;0.40;;;;;;;21.01;57.40;99727.91;5010524;28;20060;-91
2023/06/13 07:26:34;;;;;;;1.42;0.85;;;;;;;20.99;56.20;99702.28;4982297;28;20034;-90
2023/06/13 07:29:00;;;;;;;0.30;0.30;;;;;;;21.36;50.90;99721.66;4988925;28;20983;-89
2023/06/13 07:31:26;;;;;;;0.20;0.20;;;;;;;21.76;52.05;99731.47;4982763;28;20632;-90
2023/06/13 07:33:52;;;;;;;0.08;0.08;;;;;;;22.16;49.19;99727.91;5004035;28;20029;-90
2023/06/13 07:36:19;;;;;;;0.45;0.20;;;;;;;22.25;46.26;99721.19;4991691;28;20037;-90
2023/06/13 07:38:45;;;;;;;0.03;0.03;;;;;;;22.18;47.07;99688.63;4993377;28;20033;-90
2023/06/13 07:41:11;;;;;;;0.40;0.40;;;;;;;21.99;45.30;99729.34;4991228;28;20037;-91
2023/06/13 07:43:36;;;;;;;0.05;0.05;;;;;;;21.96;45.18;99733.22;5006861;28;20038;-90
2023/06/13 07:46:02;;;;;;;0.60;0.60;;;;;;;22.14;47.48;99722.03;4993967;28;20060;-90
2023/06/13 07:48:28;;;;;;;0.30;0.30;;;;;;;22.20;46.34;99722.75;5002540;28;20041;-91
2023/06/13 07:50:54;;;;;;;0.05;0.05;;;;;;;22.53;47.25;99718.91;4982772;28;20550;-90
2023/06/13 07:53:19;;;;;;;0.30;0.30;;;;;;;22.61;46.32;99719.84;4990339;28;20037;-90
2023/06/13 07:55:48;;;;;;;0.30;0.30;;;;;;;22.26;44.68;99711.41;4992317;28;20038;-91
2023/06/13 07:58:14;;;;;;;0.80;0.65;;;;;;;22.16;45.44;99710.97;5006390;28;20056;-91
2023/06/13 08:00:40;;;;;;;0.32;0.28;;;;;;;22.50;44.93;99705.06;4989911;28;20501;-90
2023/06/13 08:03:06;;;;;;;0.50;0.50;;;;;;;22.98;45.67;99712.84;5006442;28;20026;-91
2023/06/13 08:05:32;;;;;;;1.02;0.77;;;;;;;23.07;44.02;99712.47;4991462;28;20530;-90
2023/06/13 08:07:58;;;;;;;0.57;0.55;;;;;;;22.82;42.72;99694.75;5004603;28;20038;-91
2023/06/13 08:10:26;;;;;;;0.35;0.32;;;;;;;22.98;41.98;99696.63;5026400;28;20030;-90
2023/06/13 08:12:52;;;;;;;1.55;1.08;;;;;;;23.20;42.03;99710.53;5022081;28;20042;-90
2023/06/13 08:15:18;;;;;;;0.13;0.13;;;;;;;23.15;41.69;99704.94;5021830;28;20018;-91
2023/06/13 08:17:44;;;;;;;0.40;0.40;;;;;;;23.28;41.76;99699.38;4990699;28;20040;-91
2023/06/13 08:20:10;;;;;;;0.30;0.30;;;;;;;23.45;41.15;99707.69;5010880;28;20057;-90
2023/06/13 08:22:39;;;;;;;0.30;0.30;;;;;;;23.50;40.68;99715.34;5014817;28;20104;-90
2023/06/13 08:25:08;;;;;;;0.10;0.10;;;;;;;23.44;39.91;99703.31;4986335;28;20081;-90
2023/06/13 08:27:35;;;;;;;0.50;0.50;;;;;;;23.39;38.11;99710.56;5001032;28;20034;-90
2023/06/13 08:30:06;;;;;;;0.60;0.43;;;;;;;23.31;39.44;99697.53;4974977;28;20026;-90
2023/06/13 08:32:32;;;;;;;0.25;0.25;;;;;;;23.39;38.19;99698.47;5000319;28;20508;-90
2023/06/13 08:35:01;;;;;;;0.30;0.30;;;;;;;23.58;37.88;99694.38;4966732;28;20069;-90
2023/06/13 08:37:27;;;;;;;0.03;0.03;;;;;;;23.48;37.01;99712.28;5005408;28;20042;-91
2023/06/13 08:39:53;;;;;;;0.38;0.38;;;;;;;23.62;37.79;99689.19;5000625;28;20034;-90
2023/06/13 08:42:19;;;;;;;0.10;0.10;;;;;;;24.21;39.04;99698.66;5004484;28;20034;-91
2023/06/13 08:44:46;;;;;;;0.43;0.40;;;;;;;24.46;36.80;99696.44;4992557;28;20031;-90
2023/06/13 08:47:12;;;;;;;0.73;0.38;;;;;;;24.23;37.56;99706.59;4980507;28;20077;-91
2023/06/13 08:49:38;;;;;;;0.50;0.32;;;;;;;24.24;37.79;99699.63;4963601;28;20014;-92
2023/06/13 08:52:07;;;;;;;0.22;0.22;;;;;;;24.57;38.48;99679.22;5006293;28;20462;-91
2023/06/13 08:54:35;;;;;;;3.95;0.65;;;;;;;24.75;37.59;99700.31;4979135;28;20400;-91
2023/06/13 08:57:04;;;;;;;0.20;0.20;;;;;;;24.79;35.89;99701.50;4993012;28;20183;-90
2023/06/13 08:59:31;;;;;;;0.10;0.10;;;;;;;24.98;36.86;99682.34;4968593;28;20088;-91
2023/06/13 09:01:57;;;;;;;0.60;0.60;;;;;;;25.02;35.33;99696.97;4993789;28;20034;-91
2023/06/13 09:04:27;;;;;;;0.10;0.10;;;;;;;25.34;36.21;99693.25;5003478;28;20401;-91
2023/06/13 09:06:55;;;;;;;0.60;0.50;;;;;;;25.47;36.49;99690.38;4994525;28;20033;-91
2023/06/13 09:09:20;;;;;;;0.40;0.40;;;;;;;25.12;35.21;99693.69;4990083;28;20038;-91
2023/06/13 09:11:47;;;;;;;0.38;0.10;;;;;;;24.51;36.86;99692.72;5003401;28;20568;-91
2023/06/13 09:14:12;;;;;;;0.38;0.30;;;;;;;23.89;37.32;99687.25;4986069;28;20039;-90
2023/06/13 09:16:39;;;;;;;0.75;0.75;;;;;;;24.29;37.04;99676.88;4969777;28;20103;-91
2023/06/13 09:19:04;;;;;;;0.52;0.30;;;;;;;24.74;36.62;99682.53;4992018;28;20053;-92
2023/06/13 09:21:30;;;;;;;0.85;0.63;;;;;;;25.00;36.57;99676.88;4986330;28;20046;-92
2023/06/13 09:23:55;;;;;;;0.63;0.60;;;;;;;25.45;36.77;99681.66;5001478;28;20160;-91
2023/06/13 09:26:21;;;;;;;0.63;0.47;;;;;;;25.50;35.89;99689.28;4975106;28;20173;-91
2023/06/13 09:28:48;;;;;;;0.63;0.55;;;;;;;25.65;35.27;99688.72;4955527;28;20355;-91
2023/06/13 09:31:14;;;;;;;0.35;0.20;;;;;;;25.21;36.85;99670.53;4990755;28;20046;-92
2023/06/13 09:33:40;;;;;;;0.47;0.47;;;;;;;25.13;37.25;99678.19;5002150;28;20137;-91
2023/06/13 09:36:06;;;;;;;1.35;0.17;;;;;;;25.36;37.25;99679.25;4990882;28;20054;-91
2023/06/13 09:38:37;;;;;;;0.30;0.22;;;;;;;25.40;36.66;99665.47;4975116;28;20033;-92
2023/06/13 09:41:04;;;;;;;1.27;0.40;;;;;;;25.22;36.29;99672.84;4999281;28;20050;-93
2023/06/13 09:43:29;;;;;;;0.68;0.35;;;;;;;25.14;35.99;99674.81;4988800;28;20030;-91
2023/06/13 09:45:55;;;;;;;0.57;0.32;;;;;;;25.45;36.62;99667.44;4965663;28;20053;-91
2023/06/13 09:48:21;;;;;;;0.40;0.40;;;;;;;25.27;35.71;99659.84;4988851;28;20406;-91
2023/06/13 09:50:48;;;;;;;0.40;0.40;;;;;;;25.62;36.19;99645.16;4993378;28;20141;-91
2023/06/13 09:53:13;;;;;;;0.55;0.40;;;;;;;25.80;36.43;99661.25;5000579;28;20077;-91
2023/06/13 09:55:39;;;;;;;0.20;0.20;;;;;;;25.64;36.20;99639.69;4978263;28;20064;-92
2023/06/13 09:58:05;;;;;;;0.30;0.30;;;;;;;25.88;36.41;99655.69;4957677;28;20116;-91
2023/06/13 10:00:31;;;;;;;1.23;0.93;;;;;;;26.39;36.30;99658.84;4987456;28;20030;-91
2023/06/13 10:02:57;;;;;;;1.65;0.50;;;;;;;26.52;36.01;99647.38;4970446;28;20552;-92
2023/06/13 10:05:23;;;;;;;2.13;0.98;;;;;;;26.30;35.06;99645.09;5009532;28;20116;-91
2023/06/13 10:07:49;;;;;;;0.28;0.28;;;;;;;25.94;36.00;99642.84;5015225;28;20132;-91
2023/06/13 10:10:15;;;;;;;0.30;0.30;;;;;;;25.84;36.11;99638.94;5010593;28;20145;-91
2023/06/13 10:12:47;;;;;;;0.28;0.28;;;;;;;25.83;37.57;99626.06;5000980;28;20042;-91
2023/06/13 10:15:14;;;;;;;;;;;;;;;26.10;36.97;99648.69;4992446;28;20042;-92
2023/06/13 10:17:41;;;;;;;0.35;0.35;;;;;;;26.12;36.44;99641.13;5001084;28;19951;-91
2023/06/13 10:20:10;;;;;;;0.57;0.57;;;;;;;26.68;35.78;99642.56;5001045;28;20099;-92
2023/06/13 10:22:39;;;;;;;0.10;0.10;;;;;;;26.34;36.20;99617.84;4988475;28;20119;-91
2023/06/13 10:25:08;;;;;;;0.68;0.60;;;;;;;26.76;37.29;99606.38;4993192;28;20553;-92
2023/06/13 10:27:36;;;;;;;0.20;0.20;;;;;;;26.65;35.58;99618.81;4996149;28;20085;-91
2023/06/13 10:30:11;;;;;;;0.32;0.20;;;;;;;26.30;36.13;99619.50;5005926;28;20034;-92
2023/06/13 10:33:03;;;;;;;0.10;0.10;;;;;;;26.38;36.74;99623.19;5010469;28;20225;-91
2023/06/13 10:35:46;;;;;;;0.20;0.20;;;;;;;26.10;36.76;99603.19;5016185;28;20026;-95
2023/06/13 10:38:19;;;;;;;;;;;;;;;26.35;36.84;99625.06;4996211;28;20569;-95
2023/06/13 10:41:04;;;;;;;0.17;0.17;;;;;;;26.77;34.89;99608.66;4982794;28;19936;-96
2023/06/13 10:43:42;;;;;;;1.20;0.95;;;;;;;26.50;34.31;99607.34;4981945;28;20038;-96
2023/06/13 10:46:08;;;;;;;0.10;0.10;;;;;;;26.48;35.73;99620.59;5013088;28;20045;-95
2023/06/13 10:48:47;;;;;;;0.17;0.17;;;;;;;25.61;34.25;99595.34;5019148;28;20030;-95
2023/06/13 10:51:19;;;;;;;0.20;0.20;;;;;;;26.15;34.08;99586.00;4996071;28;20460;-96
2023/06/13 10:53:45;;;;;;;0.17;0.17;;;;;;;26.58;34.38;99591.09;4991756;28;20492;-96
2023/06/13 10:56:17;;;;;;;0.38;0.30;;;;;;;26.95;33.21;99601.19;5001022;28;20046;-96
2023/06/13 10:58:43;;;;;;;1.83;0.75;;;;;;;26.86;34.12;99576.09;5021084;28;20048;-96
2023/06/13 11:01:25;;;;;;;0.20;0.20;;;;;;;26.92;33.40;99612.94;4990919;28;20079;-95
2023/06/13 11:03:50;;;;;;;0.22;0.20;;;;;;;27.18;33.91;99578.53;5019258;28;20043;-96
2023/06/13 11:06:16;;;;;;;0.15;0.15;;;;;;;27.30;33.39;99569.09;4989973;28;20077;-96
2023/06/13 11:08:43;;;;;;;0.13;0.13;;;;;;;27.34;34.24;99574.41;5020842;28;20053;-96
2023/06/13 11:11:09;;;;;;;0.25;0.20;;;;;;;27.21;33.91;99568.88;4992642;28;20042;-96
2023/06/13 11:13:38;;;;;;;0.20;0.20;;;;;;;27.87;34.21;99590.88;5009233;28;20041;-96
2023/06/13 11:16:19;;;;;;;1.02;0.93;;;;;;;27.72;33.94;99591.63;4976607;28;20096;-93
2023/06/13 11:18:47;;;;;;;0.20;0.20;;;;;;;28.13;32.54;99596.28;4988348;28;20053;-96
2023/06/13 11:21:13;;;;;;;0.28;0.25;;;;;;;27.51;32.18;99571.84;4965545;28;20049;-95
2023/06/13 11:24:07;;;;;;;1.60;1.08;;;;;;;27.61;32.65;99554.97;4996745;28;20049;-95
2023/06/13 11:26:34;;;;;;;0.30;0.30;;;;;;;27.28;32.42;99605.91;5009959;28;20045;-95
2023/06/13 11:29:01;;;;;;;0.38;0.38;;;;;;;27.63;31.86;99598.63;5019629;28;20083;-95
2023/06/13 11:31:28;;;;;;;0.20;0.20;;;;;;;27.25;32.09;99594.91;5011878;28;20103;-96
2023/06/13 11:33:58;;;;;;;0.30;0.30;;;;;;;26.23;32.62;99544.22;5000744;28;20021;-96
2023/06/13 11:36:25;;;;;;;0.80;0.60;;;;;;;25.61;34.14;99566.94;5032695;28;20113;-96
2023/06/13 11:39:00;;;;;;;0.20;0.20;;;;;;;25.75;34.03;99542.84;5033444;28;20067;-96
2023/06/13 11:41:27;;;;;;;0.30;0.20;;;;;;;26.34;32.84;99531.78;5019563;28;20462;-96
2023/06/13 11:43:55;;;;;;;0.20;0.20;;;;;;;27.04;32.25;99568.59;5004674;28;20033;-91
2023/06/13 11:46:21;;;;;;;0.13;0.13;;;;;;;27.28;31.95;99570.97;5009419;28;20030;-93
2023/06/13 11:48:53;;;;;;;0.40;0.28;;;;;;;27.70;32.26;99560.84;5022013;28;20053;-94
2023/06/13 11:51:19;;;;;;;0.30;0.30;;;;;;;27.30;32.16;99534.16;5008119;28;20057;-95
2023/06/13 11:53:48;;;;;;;0.73;0.30;;;;;;;26.66;31.96;99557.00;4994111;28;20523;-93
2023/06/13 11:56:15;;;;;;;0.17;0.17;;;;;;;25.73;33.55;99564.59;5021023;28;20494;-94
2023/06/13 11:58:41;;;;;;;0.20;0.20;;;;;;;25.83;34.39;99563.56;5010660;28;20124;-95
2023/06/13 12:01:06;;;;;;;0.20;0.10;;;;;;;25.39;34.37;99556.84;5014877;28;20531;-93
2023/06/13 12:03:40;;;;;;;0.55;0.55;;;;;;;24.94;34.96;99542.91;5009962;28;20049;-92
2023/06/13 12:06:06;;;;;;;0.22;0.22;;;;;;;25.41;35.94;99539.25;5013254;28;20060;-93
2023/06/13 12:08:35;;;;;;;0.30;0.30;;;;;;;25.63;32.92;99555.81;5022478;28;20120;-92
2023/06/13 12:11:08;;;;;;;0.40;0.40;;;;;;;25.31;33.91;99530.47;5009906;28;20044;-93
2023/06/13 12:13:33;;;;;;;0.25;0.25;;;;;;;25.55;34.48;99531.47;5017136;28;20029;-93
2023/06/13 12:16:03;;;;;;;0.40;0.40;;;;;;;26.21;34.36;99546.09;5006256;28;21418;-92
2023/06/13 12:18:29;;;;;;;0.13;0.13;;;;;;;26.42;32.33;99519.13;5004297;28;20033;-93
2023/06/13 12:20:56;;;;;;;0.50;0.50;;;;;;;26.86;33.19;99500.03;5018560;28;20054;-94
2023/06/13 12:23:30;;;;;;;0.22;0.15;;;;;;;26.99;30.84;99515.44;5010337;28;20045;-94
2023/06/13 12:25:56;;;;;;;0.30;0.30;;;;;;;27.01;31.17;99512.81;5004994;28;20068;-94
2023/06/13 12:28:23;;;;;;;0.32;0.32;;;;;;;27.34;31.68;99523.13;5036378;28;20033;-93
2023/06/13 12:30:49;;;;;;;0.47;0.47;;;;;;;26.80;32.14;99505.13;5016633;28;20125;-94
2023/06/13 12:33:18;;;;;;;0.20;0.20;;;;;;;26.52;33.41;99498.72;5035826;28;20034;-93
2023/06/13 12:35:56;;;;;;;0.77;0.77;;;;;;;26.12;32.38;99503.94;5006906;28;20061;-93
2023/06/13 12:38:29;;;;;;;0.40;0.40;;;;;;;26.16;33.21;99516.47;4995274;28;20041;-94
2023/06/13 12:40:56;;;;;;;0.35;0.35;;;;;;;25.57;33.97;99511.78;5014157;28;20054;-94
2023/06/13 12:43:25;;;;;;;2.30;0.30;;;;;;;24.95;34.69;99493.31;5009750;28;20037;-92
2023/06/13 12:45:52;;;;;;;0.40;0.35;;;;;;;24.81;34.93;99496.72;5008752;28;20053;-93